createdAt,value
2023-01-19T00:00:36.504Z,54.53
2023-01-19T00:03:10.106Z,53.95
2023-01-19T00:05:40.650Z,53.72
2023-01-19T00:08:17.760Z,53.94
2023-01-19T00:10:54.026Z,54.56
2023-01-19T00:13:24.899Z,54.57
2023-01-19T00:15:55.697Z,53.47
2023-01-19T00:18:26.368Z,54.68
2023-01-19T00:20:57.106Z,55.50
2023-01-19T00:23:29.046Z,55.57
2023-01-19T00:25:59.586Z,54.92
2023-01-19T00:28:30.090Z,55.24
2023-01-19T00:31:00.654Z,57.64
2023-01-19T00:33:31.201Z,58.72
2023-01-19T00:36:01.742Z,57.17
2023-01-19T00:38:32.328Z,56.10
2023-01-19T00:41:03.304Z,55.27
2023-01-19T00:43:34.104Z,55.50
2023-01-19T00:46:05.647Z,58.53
2023-01-19T00:48:37.347Z,58.46
2023-01-19T00:51:07.952Z,56.05
2023-01-19T00:53:38.541Z,58.60
2023-01-19T00:56:09.475Z,64.99
2023-01-19T00:58:40.058Z,60.85
2023-01-19T01:01:12.693Z,62.66
2023-01-19T01:03:43.323Z,59.04
2023-01-19T01:06:13.857Z,56.85
2023-01-19T01:08:44.483Z,62.92
2023-01-19T01:11:15.062Z,62.15
2023-01-19T01:13:45.624Z,59.55
2023-01-19T01:16:19.328Z,58.07
2023-01-19T01:18:49.893Z,61.03
2023-01-19T01:21:21.532Z,58.34
2023-01-19T01:23:52.135Z,60.39
2023-01-19T01:26:22.786Z,58.40
2023-01-19T01:28:53.364Z,58.11
2023-01-19T01:31:24.069Z,55.82
2023-01-19T01:33:54.805Z,59.73
2023-01-19T01:36:26.984Z,64.54
2023-01-19T01:38:57.531Z,66.45
2023-01-19T01:41:28.284Z,66.41
2023-01-19T01:44:01.322Z,66.41
2023-01-19T01:46:33.232Z,64.37
2023-01-19T01:49:10.363Z,63.11
2023-01-19T01:51:47.188Z,60.18
2023-01-19T01:54:26.383Z,59.39
2023-01-19T01:57:00.921Z,58.31
2023-01-19T01:59:39.521Z,58.84
2023-01-19T02:02:33.261Z,56.74
2023-01-19T02:05:09.550Z,58.44
2023-01-19T02:08:27.240Z,59.95
2023-01-19T02:11:17.205Z,58.39
2023-01-19T02:13:47.827Z,60.82
2023-01-19T02:16:18.859Z,60.46
2023-01-19T02:18:49.528Z,61.16
2023-01-19T02:21:34.770Z,60.54
2023-01-19T02:24:05.894Z,60.19
2023-01-19T02:26:42.609Z,59.32
2023-01-19T02:29:15.628Z,56.99
2023-01-19T02:31:46.692Z,56.26
2023-01-19T02:34:22.098Z,55.41
2023-01-19T02:36:59.075Z,55.81
2023-01-19T02:39:39.833Z,56.37
2023-01-19T02:42:15.656Z,56.32
2023-01-19T02:44:52.665Z,54.99
2023-01-19T02:47:25.528Z,54.56
2023-01-19T02:50:02.769Z,54.26
2023-01-19T02:52:35.116Z,54.25
2023-01-19T02:55:15.954Z,53.21
2023-01-19T02:58:11.297Z,53.03
2023-01-19T03:00:55.181Z,52.42
2023-01-19T03:03:29.166Z,53.09
2023-01-19T03:06:25.341Z,53.19
2023-01-19T03:09:08.800Z,53.68
2023-01-19T03:11:43.026Z,52.64
2023-01-19T03:14:19.675Z,52.66
2023-01-19T03:16:57.838Z,53.21
2023-01-19T03:19:41.843Z,52.94
2023-01-19T03:22:26.525Z,55.07
2023-01-19T03:25:06.795Z,56.27
2023-01-19T03:27:42.439Z,55.73
2023-01-19T03:30:20.381Z,55.95
2023-01-19T03:32:55.461Z,55.42
2023-01-19T03:35:32.296Z,55.39
2023-01-19T03:38:08.829Z,56.40
2023-01-19T03:40:42.294Z,56.08
2023-01-19T03:43:16.846Z,55.72
2023-01-19T03:45:50.687Z,56.36
2023-01-19T03:48:25.632Z,56.40
2023-01-19T03:50:57.965Z,55.57
2023-01-19T03:53:33.604Z,55.20
2023-01-19T03:56:07.800Z,56.25
2023-01-19T03:58:39.027Z,57.28
2023-01-19T04:01:11.720Z,56.81
2023-01-19T04:03:45.358Z,56.34
2023-01-19T04:06:16.784Z,55.91
2023-01-19T04:08:50.290Z,56.21
2023-01-19T04:11:26.127Z,56.30
2023-01-19T04:14:00.979Z,55.84
2023-01-19T04:16:32.487Z,56.08
2023-01-19T04:19:05.375Z,56.04
2023-01-19T04:21:39.410Z,56.13
2023-01-19T04:24:13.008Z,56.52
2023-01-19T04:26:46.806Z,56.34
2023-01-19T04:29:18.381Z,55.52
2023-01-19T04:31:51.796Z,55.51
2023-01-19T04:34:23.212Z,56.20
2023-01-19T04:36:58.217Z,56.06
2023-01-19T04:39:30.602Z,56.10
2023-01-19T04:42:11.171Z,55.55
2023-01-19T04:44:43.376Z,53.71
2023-01-19T04:47:15.641Z,54.34
2023-01-19T04:49:47.794Z,55.89
2023-01-19T04:52:19.216Z,56.61
2023-01-19T04:54:50.884Z,56.74
2023-01-19T04:57:21.464Z,56.26
2023-01-19T04:59:52.179Z,56.47
2023-01-19T05:02:22.947Z,55.87
2023-01-19T05:04:53.988Z,55.91
2023-01-19T05:07:24.534Z,55.25
2023-01-19T05:09:55.387Z,55.53
2023-01-19T05:12:25.939Z,56.40
2023-01-19T05:14:56.541Z,56.83
2023-01-19T05:17:27.403Z,56.18
2023-01-19T05:19:57.972Z,56.37
2023-01-19T05:22:28.570Z,56.68
2023-01-19T05:24:59.141Z,56.37
2023-01-19T05:27:29.663Z,56.44
2023-01-19T05:30:00.189Z,56.63
2023-01-19T05:32:30.727Z,56.72
2023-01-19T05:35:01.415Z,56.47
2023-01-19T05:37:32.787Z,55.81
2023-01-19T05:40:03.337Z,55.78
2023-01-19T05:42:34.267Z,56.21
2023-01-19T05:45:05.115Z,56.68
2023-01-19T05:47:35.790Z,55.78
2023-01-19T05:50:06.992Z,56.20
2023-01-19T05:52:37.534Z,55.69
2023-01-19T05:55:08.796Z,56.03
2023-01-19T05:57:39.447Z,55.72
2023-01-19T06:00:11.052Z,55.78
2023-01-19T06:02:42.837Z,55.13
2023-01-19T06:05:13.457Z,54.12
2023-01-19T06:07:44.009Z,53.91
2023-01-19T06:10:14.616Z,54.39
2023-01-19T06:12:46.190Z,54.95
2023-01-19T06:15:16.861Z,54.44
2023-01-19T06:17:47.422Z,54.37
2023-01-19T06:20:18.636Z,54.39
2023-01-19T06:22:49.241Z,55.18
2023-01-19T06:25:19.879Z,55.61
2023-01-19T06:27:50.405Z,55.00
2023-01-19T06:30:21.304Z,56.00
2023-01-19T06:32:51.905Z,57.86
2023-01-19T06:35:22.471Z,57.70
2023-01-19T06:37:54.137Z,55.36
2023-01-19T06:40:24.690Z,54.87
2023-01-19T06:42:55.217Z,54.82
2023-01-19T06:45:26.880Z,54.89
2023-01-19T06:47:57.485Z,55.26
2023-01-19T06:50:28.472Z,55.37
2023-01-19T06:52:59.367Z,54.96
2023-01-19T06:55:30.163Z,55.95
2023-01-19T06:58:01.441Z,56.88
2023-01-19T07:00:32.281Z,58.61
2023-01-19T07:03:05.117Z,59.69
2023-01-19T07:05:37.491Z,59.87
2023-01-19T07:08:08.014Z,59.58
2023-01-19T07:11:22.211Z,59.91
2023-01-19T07:13:10.846Z,58.06
2023-01-19T07:15:42.561Z,57.99
2023-01-19T07:18:13.118Z,56.90
2023-01-19T07:20:45.270Z,57.39
2023-01-19T07:23:16.410Z,58.97
2023-01-19T07:25:48.039Z,57.53
2023-01-19T07:28:18.816Z,55.88
2023-01-19T07:30:54.413Z,55.86
2023-01-19T07:33:26.338Z,54.96
2023-01-19T07:35:57.890Z,55.47
2023-01-19T07:38:28.467Z,56.14
2023-01-19T07:41:07.266Z,55.50
2023-01-19T07:43:37.913Z,55.28
2023-01-19T07:46:08.888Z,54.59
2023-01-19T07:48:39.698Z,54.44
2023-01-19T07:51:13.201Z,53.73
2023-01-19T07:53:45.534Z,53.59
2023-01-19T07:56:16.325Z,54.09
2023-01-19T07:58:47.093Z,54.38
2023-01-19T08:01:18.257Z,54.93
2023-01-19T08:03:50.136Z,54.90
2023-01-19T08:06:25.817Z,55.20
2023-01-19T08:08:56.331Z,56.45
2023-01-19T08:11:26.996Z,56.04
2023-01-19T08:13:57.596Z,56.15
2023-01-19T08:16:28.524Z,56.31
2023-01-19T08:18:59.341Z,56.62
2023-01-19T08:21:33.127Z,56.88
2023-01-19T08:24:04.094Z,57.71
2023-01-19T08:26:36.555Z,57.22
2023-01-19T08:29:07.368Z,57.19
2023-01-19T08:31:38.776Z,57.69
2023-01-19T08:34:09.801Z,57.54
2023-01-19T08:36:40.380Z,58.21
2023-01-19T08:39:12.515Z,58.90
2023-01-19T08:41:43.443Z,58.55
2023-01-19T08:44:16.129Z,58.93
2023-01-19T08:46:48.935Z,59.16
2023-01-19T08:49:19.512Z,59.38
2023-01-19T08:51:50.081Z,58.62
2023-01-19T08:54:23.371Z,59.46
2023-01-19T08:57:14.224Z,58.73
2023-01-19T08:59:51.678Z,60.06
2023-01-19T09:02:35.808Z,58.58
2023-01-19T09:05:42.527Z,57.86
2023-01-19T09:08:21.839Z,57.90
2023-01-19T09:10:54.107Z,57.08
2023-01-19T09:13:26.693Z,57.25
2023-01-19T09:15:58.019Z,57.07
2023-01-19T09:18:28.943Z,55.54
2023-01-19T09:20:59.777Z,55.34
2023-01-19T09:23:30.675Z,55.21
2023-01-19T09:26:03.637Z,53.89
2023-01-19T09:28:34.717Z,53.21
2023-01-19T09:31:10.032Z,53.07
2023-01-19T09:33:40.886Z,52.58
2023-01-19T09:36:11.706Z,52.69
2023-01-19T09:38:42.738Z,53.19
2023-01-19T09:41:20.539Z,53.14
2023-01-19T09:44:00.184Z,53.31
2023-01-19T09:46:42.390Z,52.35
2023-01-19T09:49:15.910Z,52.11
2023-01-19T09:51:49.151Z,51.84
2023-01-19T09:54:46.693Z,51.83
2023-01-19T09:57:17.248Z,51.18
2023-01-19T09:59:50.791Z,51.59
2023-01-19T10:02:45.351Z,51.08
2023-01-19T10:05:33.558Z,52.51
2023-01-19T10:08:15.758Z,49.89
2023-01-19T10:10:54.395Z,49.65
2023-01-19T10:13:42.046Z,48.77
2023-01-19T10:16:33.232Z,49.29
2023-01-19T10:19:15.382Z,49.87
2023-01-19T10:21:47.506Z,53.20
2023-01-19T10:24:21.011Z,52.90
2023-01-19T10:26:54.708Z,54.33
2023-01-19T10:29:32.701Z,53.08
2023-01-19T10:32:20.062Z,52.15
2023-01-19T10:34:51.925Z,52.51
2023-01-19T10:37:31.164Z,51.76
2023-01-19T10:40:25.842Z,52.75
2023-01-19T10:42:58.789Z,54.92
2023-01-19T10:45:32.516Z,53.11
2023-01-19T10:48:06.268Z,54.47
2023-01-19T10:50:41.706Z,54.47
2023-01-19T10:53:21.702Z,54.11
2023-01-19T10:55:55.046Z,54.91
2023-01-19T10:58:34.175Z,54.01
2023-01-19T11:01:26.189Z,52.93
2023-01-19T11:03:58.956Z,52.97
2023-01-19T11:06:31.201Z,52.60
2023-01-19T11:09:21.891Z,53.06
2023-01-19T11:11:54.391Z,54.48
2023-01-19T11:14:27.521Z,51.57
2023-01-19T11:17:00.133Z,51.29
2023-01-19T11:19:33.558Z,50.67
2023-01-19T11:22:20.465Z,50.10
2023-01-19T11:24:52.424Z,50.71
2023-01-19T11:27:23.479Z,50.67
2023-01-19T11:30:10.673Z,52.22
2023-01-19T11:32:42.254Z,52.23
2023-01-19T11:35:34.122Z,51.27
2023-01-19T11:38:19.685Z,51.27
2023-01-19T11:40:59.091Z,51.29
2023-01-19T11:43:47.492Z,50.95
2023-01-19T11:46:04.021Z,52.00
2023-01-19T11:48:40.349Z,52.63
2023-01-19T11:51:15.049Z,52.16
2023-01-19T11:53:48.571Z,51.55
2023-01-19T11:56:22.139Z,51.54
2023-01-19T11:58:52.673Z,53.88
2023-01-19T12:01:35.319Z,51.45
2023-01-19T12:04:17.487Z,51.12
2023-01-19T12:06:50.966Z,50.36
2023-01-19T12:09:27.067Z,51.68
2023-01-19T12:12:00.520Z,54.35
2023-01-19T12:14:43.044Z,52.73
2023-01-19T12:17:17.535Z,54.67
2023-01-19T12:19:55.135Z,52.95
2023-01-19T12:22:28.988Z,52.70
2023-01-19T12:25:09.182Z,51.49
2023-01-19T12:27:41.919Z,51.10
2023-01-19T12:30:24.102Z,50.40
2023-01-19T12:33:13.964Z,50.60
2023-01-19T12:36:03.929Z,51.46
2023-01-19T12:38:49.624Z,51.17
2023-01-19T12:41:32.025Z,50.36
2023-01-19T12:44:16.386Z,51.04
2023-01-19T12:46:52.701Z,50.75
2023-01-19T12:49:42.776Z,50.99
2023-01-19T12:52:36.503Z,50.55
2023-01-19T12:55:10.023Z,50.71
2023-01-19T12:58:00.989Z,49.93
2023-01-19T13:00:34.693Z,50.13
2023-01-19T13:03:08.312Z,49.76
2023-01-19T13:05:44.999Z,49.89
2023-01-19T13:08:23.448Z,49.94
2023-01-19T13:11:06.506Z,49.81
2023-01-19T13:13:52.709Z,49.67
2023-01-19T13:16:27.682Z,50.45
2023-01-19T13:19:05.438Z,51.37
2023-01-19T13:21:44.676Z,51.70
2023-01-19T13:24:23.510Z,51.46
2023-01-19T13:26:57.962Z,51.34
2023-01-19T13:29:33.948Z,52.39
2023-01-19T13:32:07.825Z,51.47
2023-01-19T13:34:44.213Z,51.75
2023-01-19T13:37:24.698Z,52.18
2023-01-19T13:39:56.733Z,52.05
2023-01-19T13:42:39.186Z,50.47
2023-01-19T13:45:29.942Z,49.84
2023-01-19T13:48:03.453Z,49.91
2023-01-19T13:50:38.590Z,50.10
2023-01-19T13:53:20.897Z,50.48
2023-01-19T13:56:12.979Z,51.55
2023-01-19T13:58:43.682Z,52.09
2023-01-19T14:01:26.617Z,51.13
2023-01-19T14:03:58.245Z,53.33
2023-01-19T14:06:43.559Z,53.00
2023-01-19T14:09:19.488Z,52.33
2023-01-19T14:12:14.261Z,55.00
2023-01-19T14:14:49.784Z,53.30
2023-01-19T14:17:21.343Z,53.79
2023-01-19T14:19:59.655Z,52.88
2023-01-19T14:22:45.175Z,53.84
2023-01-19T14:25:30.262Z,52.49
2023-01-19T14:28:32.196Z,51.85
2023-01-19T14:31:22.031Z,49.74
2023-01-19T14:33:54.858Z,49.25
2023-01-19T14:36:32.615Z,49.51
2023-01-19T14:39:09.215Z,51.43
2023-01-19T14:41:50.487Z,51.78
2023-01-19T14:44:31.170Z,51.80
2023-01-19T14:47:06.817Z,51.30
2023-01-19T14:49:46.981Z,51.61
2023-01-19T14:52:25.679Z,51.50
2023-01-19T14:55:00.234Z,52.00
2023-01-19T14:57:35.118Z,51.18
2023-01-19T15:00:18.370Z,50.99
2023-01-19T15:02:53.435Z,51.10
2023-01-19T15:05:25.737Z,50.91
2023-01-19T15:07:57.903Z,50.26
2023-01-19T15:10:29.212Z,49.87
2023-01-19T15:13:03.255Z,54.41
2023-01-19T15:15:36.735Z,52.72
2023-01-19T15:18:10.751Z,53.92
2023-01-19T15:20:44.650Z,55.87
2023-01-19T15:23:19.491Z,57.58
2023-01-19T15:25:52.572Z,57.46
2023-01-19T15:28:25.760Z,52.95
2023-01-19T15:31:03.207Z,53.48
2023-01-19T15:33:35.576Z,53.48
2023-01-19T15:36:12.049Z,55.79
2023-01-19T15:38:49.112Z,55.40
2023-01-19T15:41:33.768Z,55.87
2023-01-19T15:44:08.420Z,54.93
2023-01-19T15:46:41.310Z,56.74
2023-01-19T15:49:12.899Z,58.67
2023-01-19T15:51:45.242Z,61.61
2023-01-19T15:54:21.594Z,65.42
2023-01-19T15:56:54.072Z,64.35
2023-01-19T15:59:26.166Z,60.56
2023-01-19T16:01:58.654Z,57.03
2023-01-19T16:04:29.760Z,55.69
2023-01-19T16:07:06.269Z,57.92
2023-01-19T16:09:38.979Z,57.00
2023-01-19T16:12:11.797Z,54.69
2023-01-19T16:14:45.594Z,55.01
2023-01-19T16:17:19.712Z,56.49
2023-01-19T16:19:50.938Z,54.44
2023-01-19T16:22:25.545Z,55.52
2023-01-19T16:24:59.779Z,53.82
2023-01-19T16:27:32.099Z,55.66
2023-01-19T16:30:05.642Z,57.48
2023-01-19T16:32:39.713Z,54.90
2023-01-19T16:35:11.798Z,53.88
2023-01-19T16:37:46.406Z,52.67
2023-01-19T16:40:30.175Z,52.68
2023-01-19T16:43:07.136Z,52.92
2023-01-19T16:45:41.301Z,52.88
2023-01-19T16:48:14.958Z,52.82
2023-01-19T16:50:50.748Z,51.97
2023-01-19T16:53:32.439Z,50.35
2023-01-19T16:56:12.799Z,50.90
2023-01-19T16:58:44.309Z,51.04
2023-01-19T17:01:20.312Z,51.37
2023-01-19T17:03:51.372Z,51.43
2023-01-19T17:06:23.890Z,52.63
2023-01-19T17:08:54.683Z,51.59
2023-01-19T17:11:27.725Z,51.12
2023-01-19T17:14:02.362Z,51.13
2023-01-19T17:16:34.596Z,50.44
2023-01-19T17:19:07.804Z,50.43
2023-01-19T17:21:38.484Z,50.72
2023-01-19T17:24:09.184Z,50.76
2023-01-19T17:26:40.068Z,50.43
2023-01-19T17:29:11.974Z,50.66
2023-01-19T17:31:43.119Z,51.22
2023-01-19T17:34:13.722Z,50.59
2023-01-19T17:36:44.307Z,51.77
2023-01-19T17:39:16.671Z,51.95
2023-01-19T17:41:49.484Z,52.68
2023-01-19T17:44:19.817Z,54.71
2023-01-19T17:46:50.343Z,57.17
2023-01-19T17:49:20.898Z,56.68
2023-01-19T17:51:55.963Z,55.15
2023-01-19T17:54:26.696Z,53.70
2023-01-19T17:56:57.259Z,53.78
2023-01-19T17:59:27.852Z,55.47
2023-01-19T18:01:58.475Z,52.84
2023-01-19T18:04:30.813Z,51.52
2023-01-19T18:07:01.595Z,51.91
2023-01-19T18:09:32.376Z,53.30
2023-01-19T18:12:03.030Z,53.62
2023-01-19T18:14:34.748Z,52.08
2023-01-19T18:17:05.620Z,51.25
2023-01-19T18:19:37.609Z,51.37
2023-01-19T18:22:09.407Z,51.82
2023-01-19T18:24:40.155Z,51.54
2023-01-19T18:27:12.444Z,53.07
2023-01-19T18:29:43.603Z,51.69
2023-01-19T18:32:14.289Z,52.20
2023-01-19T18:34:44.867Z,52.39
2023-01-19T18:37:15.469Z,50.85
2023-01-19T18:39:46.497Z,50.51
2023-01-19T18:42:17.191Z,53.24
2023-01-19T18:44:47.776Z,51.34
2023-01-19T18:47:18.431Z,51.38
2023-01-19T18:49:50.282Z,50.72
2023-01-19T18:52:20.853Z,50.39
2023-01-19T18:54:52.937Z,51.81
2023-01-19T18:57:24.010Z,53.78
2023-01-19T18:59:54.613Z,54.31
2023-01-19T19:02:26.523Z,54.34
2023-01-19T19:04:57.054Z,55.02
2023-01-19T19:07:27.664Z,52.79
2023-01-19T19:09:58.507Z,54.73
2023-01-19T19:12:29.333Z,52.47
2023-01-19T19:15:00.249Z,53.97
2023-01-19T19:17:30.874Z,54.85
2023-01-19T19:20:01.484Z,53.22
2023-01-19T19:22:32.724Z,53.51
2023-01-19T19:25:03.450Z,54.39
2023-01-19T19:27:34.581Z,53.68
2023-01-19T19:30:05.721Z,53.34
2023-01-19T19:32:36.406Z,53.98
2023-01-19T19:35:09.411Z,54.08
2023-01-19T19:37:40.575Z,54.57
2023-01-19T19:40:13.437Z,55.64
2023-01-19T19:42:44.299Z,55.38
2023-01-19T19:45:15.861Z,55.51
2023-01-19T19:47:46.704Z,56.66
2023-01-19T19:50:18.030Z,53.87
2023-01-19T19:52:48.649Z,53.54
2023-01-19T19:55:19.243Z,54.52
2023-01-19T19:57:49.856Z,53.76
2023-01-19T20:00:21.501Z,54.04
2023-01-19T20:02:53.159Z,52.81
2023-01-19T20:05:23.854Z,52.72
2023-01-19T20:07:54.430Z,51.76
2023-01-19T20:10:26.201Z,51.74
2023-01-19T20:12:58.959Z,51.72
2023-01-19T20:15:30.086Z,53.85
2023-01-19T20:18:00.692Z,51.95
2023-01-19T20:20:35.726Z,51.78
2023-01-19T20:23:07.005Z,52.79
2023-01-19T20:25:40.370Z,50.70
2023-01-19T20:28:11.438Z,50.94
2023-01-19T20:30:44.649Z,51.27
2023-01-19T20:33:16.411Z,49.81
2023-01-19T20:35:52.079Z,50.57
2023-01-19T20:38:23.796Z,50.53
2023-01-19T20:40:55.557Z,50.18
2023-01-19T20:43:26.507Z,50.39
2023-01-19T20:45:58.659Z,52.62
2023-01-19T20:48:30.983Z,52.05
2023-01-19T20:51:04.456Z,52.27
2023-01-19T20:53:38.986Z,53.04
2023-01-19T20:56:16.116Z,50.21
2023-01-19T20:58:47.211Z,50.12
2023-01-19T21:01:21.340Z,49.59
2023-01-19T21:03:55.281Z,48.91
2023-01-19T21:06:26.159Z,47.88
2023-01-19T21:08:57.926Z,47.68
2023-01-19T21:11:29.896Z,47.92
2023-01-19T21:14:01.118Z,48.62
2023-01-19T21:16:35.794Z,48.88
2023-01-19T21:19:08.650Z,49.19
2023-01-19T21:21:41.111Z,48.98
2023-01-19T21:24:12.900Z,49.00
2023-01-19T21:26:43.579Z,48.76
2023-01-19T21:29:14.481Z,49.01
2023-01-19T21:31:46.954Z,48.86
2023-01-19T21:34:17.671Z,48.84
2023-01-19T21:36:50.011Z,48.65
2023-01-19T21:39:20.867Z,48.54
2023-01-19T21:41:51.996Z,48.71
2023-01-19T21:44:23.015Z,48.31
2023-01-19T21:46:55.745Z,48.31
2023-01-19T21:49:26.841Z,48.38
2023-01-19T21:51:58.136Z,48.52
2023-01-19T21:54:32.098Z,49.09
2023-01-19T21:57:03.114Z,49.22
2023-01-19T21:59:33.898Z,49.26
2023-01-19T22:02:05.095Z,48.92
2023-01-19T22:04:40.178Z,48.69
2023-01-19T22:07:10.904Z,49.14
2023-01-19T22:09:45.224Z,48.71
2023-01-19T22:12:16.046Z,48.73
2023-01-19T22:14:49.121Z,49.07
2023-01-19T22:17:19.833Z,49.25
2023-01-19T22:19:50.500Z,49.31
2023-01-19T22:22:21.348Z,50.16
2023-01-19T22:24:52.560Z,49.91
2023-01-19T22:27:25.144Z,50.01
2023-01-19T22:29:56.055Z,49.88
2023-01-19T22:32:27.151Z,48.64
2023-01-19T22:34:57.795Z,50.80
2023-01-19T22:37:31.717Z,51.50
2023-01-19T22:40:02.532Z,51.52
2023-01-19T22:42:33.613Z,51.07
2023-01-19T22:45:04.441Z,51.48
2023-01-19T22:47:37.074Z,50.23
2023-01-19T22:50:14.292Z,50.65
2023-01-19T22:52:45.196Z,49.31
2023-01-19T22:55:16.272Z,49.15
2023-01-19T22:57:47.191Z,49.25
2023-01-19T23:00:25.293Z,49.71
2023-01-19T23:02:56.081Z,49.18
2023-01-19T23:05:26.859Z,48.70
2023-01-19T23:08:04.109Z,49.64
2023-01-19T23:10:35.320Z,49.77
2023-01-19T23:13:05.975Z,49.36
2023-01-19T23:15:36.920Z,49.46
2023-01-19T23:18:08.351Z,49.51
2023-01-19T23:20:39.632Z,49.31
2023-01-19T23:23:10.197Z,49.17
2023-01-19T23:25:40.837Z,49.21
2023-01-19T23:28:11.578Z,50.34
2023-01-19T23:30:48.147Z,51.40
2023-01-19T23:33:18.833Z,49.67
2023-01-19T23:35:49.812Z,51.15
2023-01-19T23:38:23.250Z,50.55
2023-01-19T23:40:59.823Z,51.01
2023-01-19T23:43:30.709Z,50.36
2023-01-19T23:46:12.387Z,49.56
2023-01-19T23:48:43.076Z,50.71
2023-01-19T23:51:20.873Z,49.59
2023-01-19T23:53:52.445Z,49.57
2023-01-19T23:56:25.579Z,50.53
2023-01-19T23:59:06.754Z,49.93
